sensor_id;sensor_type;location;lat;lon;timestamp;P1;durP1;ratioP1;P2;durP2;ratioP2
53549;SDS011;73079;52.914;-0.982;2024-01-30T00:01:08;42.95;;;29.67;;
53549;SDS011;73079;52.914;-0.982;2024-01-30T00:03:33;42.15;;;29.75;;
53549;SDS011;73079;52.914;-0.982;2024-01-30T00:06:00;39.58;;;28.88;;
53549;SDS011;73079;52.914;-0.982;2024-01-30T00:08:28;44.92;;;30.00;;
53549;SDS011;73079;52.914;-0.982;2024-01-30T00:10:54;52.17;;;28.98;;
53549;SDS011;73079;52.914;-0.982;2024-01-30T00:13:20;43.17;;;28.50;;
53549;SDS011;73079;52.914;-0.982;2024-01-30T00:15:46;44.97;;;27.98;;
53549;SDS011;73079;52.914;-0.982;2024-01-30T00:18:12;42.15;;;27.15;;
53549;SDS011;73079;52.914;-0.982;2024-01-30T00:20:37;39.17;;;26.08;;
53549;SDS011;73079;52.914;-0.982;2024-01-30T00:23:05;39.70;;;26.05;;
53549;SDS011;73079;52.914;-0.982;2024-01-30T00:25:30;46.58;;;28.20;;
53549;SDS011;73079;52.914;-0.982;2024-01-30T00:27:56;39.35;;;24.55;;
53549;SDS011;73079;52.914;-0.982;2024-01-30T00:30:22;36.15;;;23.50;;
53549;SDS011;73079;52.914;-0.982;2024-01-30T00:32:47;34.13;;;22.83;;
53549;SDS011;73079;52.914;-0.982;2024-01-30T00:35:13;36.17;;;22.10;;
53549;SDS011;73079;52.914;-0.982;2024-01-30T00:37:39;35.42;;;22.48;;
53549;SDS011;73079;52.914;-0.982;2024-01-30T00:40:06;32.65;;;22.60;;
53549;SDS011;73079;52.914;-0.982;2024-01-30T00:42:33;38.13;;;22.65;;
53549;SDS011;73079;52.914;-0.982;2024-01-30T00:44:59;37.28;;;21.42;;
53549;SDS011;73079;52.914;-0.982;2024-01-30T00:47:24;31.60;;;20.92;;
53549;SDS011;73079;52.914;-0.982;2024-01-30T00:49:50;37.28;;;21.67;;
53549;SDS011;73079;52.914;-0.982;2024-01-30T00:52:16;32.65;;;21.63;;
53549;SDS011;73079;52.914;-0.982;2024-01-30T00:54:41;33.85;;;20.60;;
53549;SDS011;73079;52.914;-0.982;2024-01-30T00:57:09;32.63;;;21.48;;
53549;SDS011;73079;52.914;-0.982;2024-01-30T00:59:35;35.03;;;20.02;;
53549;SDS011;73079;52.914;-0.982;2024-01-30T01:02:01;36.63;;;21.33;;
53549;SDS011;73079;52.914;-0.982;2024-01-30T01:04:26;37.08;;;20.30;;
53549;SDS011;73079;52.914;-0.982;2024-01-30T01:06:52;38.67;;;20.48;;
53549;SDS011;73079;52.914;-0.982;2024-01-30T01:09:18;35.50;;;19.35;;
53549;SDS011;73079;52.914;-0.982;2024-01-30T01:11:44;33.30;;;20.10;;
53549;SDS011;73079;52.914;-0.982;2024-01-30T01:14:11;30.73;;;19.38;;
53549;SDS011;73079;52.914;-0.982;2024-01-30T01:16:37;35.38;;;20.00;;
53549;SDS011;73079;52.914;-0.982;2024-01-30T01:19:03;28.75;;;17.95;;
53549;SDS011;73079;52.914;-0.982;2024-01-30T01:21:28;37.58;;;18.65;;
53549;SDS011;73079;52.914;-0.982;2024-01-30T01:23:54;36.35;;;19.10;;
53549;SDS011;73079;52.914;-0.982;2024-01-30T01:26:23;34.55;;;18.27;;
53549;SDS011;73079;52.914;-0.982;2024-01-30T01:28:48;31.10;;;17.98;;
53549;SDS011;73079;52.914;-0.982;2024-01-30T01:31:15;40.95;;;18.15;;
53549;SDS011;73079;52.914;-0.982;2024-01-30T01:33:42;33.83;;;19.42;;
53549;SDS011;73079;52.914;-0.982;2024-01-30T01:36:08;34.40;;;18.45;;
53549;SDS011;73079;52.914;-0.982;2024-01-30T01:38:34;32.92;;;18.90;;
53549;SDS011;73079;52.914;-0.982;2024-01-30T01:41:00;38.05;;;20.23;;
53549;SDS011;73079;52.914;-0.982;2024-01-30T01:43:25;39.10;;;20.17;;
53549;SDS011;73079;52.914;-0.982;2024-01-30T01:45:51;39.83;;;20.83;;
53549;SDS011;73079;52.914;-0.982;2024-01-30T01:48:18;37.88;;;21.08;;
53549;SDS011;73079;52.914;-0.982;2024-01-30T01:50:44;39.53;;;21.98;;
53549;SDS011;73079;52.914;-0.982;2024-01-30T01:53:10;40.50;;;20.80;;
53549;SDS011;73079;52.914;-0.982;2024-01-30T01:55:37;43.10;;;20.33;;
53549;SDS011;73079;52.914;-0.982;2024-01-30T01:58:03;42.20;;;20.27;;
53549;SDS011;73079;52.914;-0.982;2024-01-30T02:00:30;33.78;;;18.13;;
53549;SDS011;73079;52.914;-0.982;2024-01-30T02:02:56;34.83;;;17.23;;
53549;SDS011;73079;52.914;-0.982;2024-01-30T02:05:24;36.65;;;17.23;;
53549;SDS011;73079;52.914;-0.982;2024-01-30T02:07:50;34.17;;;15.65;;
53549;SDS011;73079;52.914;-0.982;2024-01-30T02:10:16;29.63;;;15.73;;
53549;SDS011;73079;52.914;-0.982;2024-01-30T02:12:43;34.30;;;15.98;;
53549;SDS011;73079;52.914;-0.982;2024-01-30T02:15:09;27.70;;;14.48;;
53549;SDS011;73079;52.914;-0.982;2024-01-30T02:17:38;32.42;;;14.77;;
53549;SDS011;73079;52.914;-0.982;2024-01-30T02:20:04;29.08;;;15.00;;
53549;SDS011;73079;52.914;-0.982;2024-01-30T02:22:32;27.15;;;13.65;;
53549;SDS011;73079;52.914;-0.982;2024-01-30T02:25:00;29.20;;;13.55;;
53549;SDS011;73079;52.914;-0.982;2024-01-30T02:27:26;30.17;;;14.05;;
53549;SDS011;73079;52.914;-0.982;2024-01-30T02:29:51;28.77;;;13.25;;
53549;SDS011;73079;52.914;-0.982;2024-01-30T02:32:17;25.35;;;13.18;;
53549;SDS011;73079;52.914;-0.982;2024-01-30T02:34:43;24.52;;;12.18;;
53549;SDS011;73079;52.914;-0.982;2024-01-30T02:37:09;26.05;;;12.15;;
53549;SDS011;73079;52.914;-0.982;2024-01-30T02:39:36;18.92;;;9.70;;
53549;SDS011;73079;52.914;-0.982;2024-01-30T02:42:02;20.40;;;10.38;;
53549;SDS011;73079;52.914;-0.982;2024-01-30T02:44:27;20.13;;;9.80;;
53549;SDS011;73079;52.914;-0.982;2024-01-30T02:46:53;22.10;;;9.05;;
53549;SDS011;73079;52.914;-0.982;2024-01-30T02:49:20;18.95;;;8.00;;
53549;SDS011;73079;52.914;-0.982;2024-01-30T02:51:46;19.58;;;7.75;;
53549;SDS011;73079;52.914;-0.982;2024-01-30T02:54:12;18.40;;;8.07;;
53549;SDS011;73079;52.914;-0.982;2024-01-30T02:56:39;16.65;;;8.30;;
53549;SDS011;73079;52.914;-0.982;2024-01-30T02:59:05;17.25;;;8.20;;
53549;SDS011;73079;52.914;-0.982;2024-01-30T03:01:30;22.75;;;8.95;;
53549;SDS011;73079;52.914;-0.982;2024-01-30T03:03:58;19.08;;;8.60;;
53549;SDS011;73079;52.914;-0.982;2024-01-30T03:06:26;22.10;;;9.32;;
53549;SDS011;73079;52.914;-0.982;2024-01-30T03:08:55;17.40;;;8.13;;
53549;SDS011;73079;52.914;-0.982;2024-01-30T03:11:25;16.85;;;7.95;;
53549;SDS011;73079;52.914;-0.982;2024-01-30T03:13:55;20.20;;;7.30;;
53549;SDS011;73079;52.914;-0.982;2024-01-30T03:16:24;17.13;;;7.25;;
53549;SDS011;73079;52.914;-0.982;2024-01-30T03:18:54;15.63;;;6.32;;
53549;SDS011;73079;52.914;-0.982;2024-01-30T03:21:24;10.30;;;4.50;;
53549;SDS011;73079;52.914;-0.982;2024-01-30T03:23:52;16.30;;;6.32;;
53549;SDS011;73079;52.914;-0.982;2024-01-30T03:26:21;12.02;;;6.03;;
53549;SDS011;73079;52.914;-0.982;2024-01-30T03:28:49;14.23;;;6.28;;
53549;SDS011;73079;52.914;-0.982;2024-01-30T03:31:20;13.23;;;5.63;;
53549;SDS011;73079;52.914;-0.982;2024-01-30T03:33:49;14.13;;;5.57;;
53549;SDS011;73079;52.914;-0.982;2024-01-30T03:36:17;13.32;;;5.03;;
53549;SDS011;73079;52.914;-0.982;2024-01-30T03:38:43;12.07;;;5.90;;
53549;SDS011;73079;52.914;-0.982;2024-01-30T03:41:08;15.80;;;6.25;;
53549;SDS011;73079;52.914;-0.982;2024-01-30T03:43:35;13.23;;;5.78;;
53549;SDS011;73079;52.914;-0.982;2024-01-30T03:46:01;14.05;;;5.50;;
53549;SDS011;73079;52.914;-0.982;2024-01-30T03:48:29;13.15;;;6.00;;
53549;SDS011;73079;52.914;-0.982;2024-01-30T03:50:55;10.52;;;5.63;;
53549;SDS011;73079;52.914;-0.982;2024-01-30T03:53:24;7.97;;;3.67;;
53549;SDS011;73079;52.914;-0.982;2024-01-30T03:55:53;9.85;;;3.90;;
53549;SDS011;73079;52.914;-0.982;2024-01-30T03:58:18;8.98;;;3.53;;
53549;SDS011;73079;52.914;-0.982;2024-01-30T04:00:44;4.60;;;2.92;;
53549;SDS011;73079;52.914;-0.982;2024-01-30T04:03:10;6.68;;;3.03;;
53549;SDS011;73079;52.914;-0.982;2024-01-30T04:05:37;5.72;;;4.18;;
53549;SDS011;73079;52.914;-0.982;2024-01-30T04:08:03;8.07;;;6.22;;
53549;SDS011;73079;52.914;-0.982;2024-01-30T04:10:29;7.97;;;5.40;;
53549;SDS011;73079;52.914;-0.982;2024-01-30T04:12:55;7.95;;;5.85;;
53549;SDS011;73079;52.914;-0.982;2024-01-30T04:15:21;5.47;;;4.40;;
53549;SDS011;73079;52.914;-0.982;2024-01-30T04:17:46;5.40;;;3.70;;
53549;SDS011;73079;52.914;-0.982;2024-01-30T04:20:13;4.97;;;3.80;;
53549;SDS011;73079;52.914;-0.982;2024-01-30T04:22:42;4.32;;;3.97;;
53549;SDS011;73079;52.914;-0.982;2024-01-30T04:25:08;5.38;;;4.60;;
53549;SDS011;73079;52.914;-0.982;2024-01-30T04:27:34;4.90;;;4.50;;
53549;SDS011;73079;52.914;-0.982;2024-01-30T04:29:59;6.93;;;5.82;;
53549;SDS011;73079;52.914;-0.982;2024-01-30T04:32:25;3.80;;;3.38;;
53549;SDS011;73079;52.914;-0.982;2024-01-30T04:34:51;4.68;;;4.10;;
53549;SDS011;73079;52.914;-0.982;2024-01-30T04:37:16;3.60;;;3.10;;
53549;SDS011;73079;52.914;-0.982;2024-01-30T04:39:44;5.20;;;4.80;;
53549;SDS011;73079;52.914;-0.982;2024-01-30T04:42:09;3.78;;;3.35;;
53549;SDS011;73079;52.914;-0.982;2024-01-30T04:44:35;4.57;;;3.67;;
53549;SDS011;73079;52.914;-0.982;2024-01-30T04:47:01;5.80;;;5.30;;
53549;SDS011;73079;52.914;-0.982;2024-01-30T04:49:26;6.97;;;6.38;;
53549;SDS011;73079;52.914;-0.982;2024-01-30T04:51:52;5.35;;;4.85;;
53549;SDS011;73079;52.914;-0.982;2024-01-30T04:54:18;6.28;;;5.68;;
53549;SDS011;73079;52.914;-0.982;2024-01-30T04:56:45;5.65;;;5.15;;
53549;SDS011;73079;52.914;-0.982;2024-01-30T04:59:11;5.32;;;4.85;;
53549;SDS011;73079;52.914;-0.982;2024-01-30T05:01:37;4.40;;;4.00;;
53549;SDS011;73079;52.914;-0.982;2024-01-30T05:04:03;6.70;;;6.10;;
53549;SDS011;73079;52.914;-0.982;2024-01-30T05:06:29;6.82;;;6.22;;
53549;SDS011;73079;52.914;-0.982;2024-01-30T05:08:55;8.00;;;7.28;;
53549;SDS011;73079;52.914;-0.982;2024-01-30T05:11:20;11.90;;;11.00;;
53549;SDS011;73079;52.914;-0.982;2024-01-30T05:13:48;12.88;;;11.77;;
53549;SDS011;73079;52.914;-0.982;2024-01-30T05:16:13;8.32;;;7.53;;
53549;SDS011;73079;52.914;-0.982;2024-01-30T05:18:39;6.85;;;6.22;;
53549;SDS011;73079;52.914;-0.982;2024-01-30T05:21:05;6.40;;;5.30;;
53549;SDS011;73079;52.914;-0.982;2024-01-30T05:23:31;8.70;;;7.90;;
53549;SDS011;73079;52.914;-0.982;2024-01-30T05:25:56;6.60;;;5.72;;
53549;SDS011;73079;52.914;-0.982;2024-01-30T05:28:22;5.75;;;4.97;;
53549;SDS011;73079;52.914;-0.982;2024-01-30T05:30:49;8.38;;;7.57;;
53549;SDS011;73079;52.914;-0.982;2024-01-30T05:33:15;6.45;;;4.63;;
53549;SDS011;73079;52.914;-0.982;2024-01-30T05:35:41;7.60;;;5.68;;
53549;SDS011;73079;52.914;-0.982;2024-01-30T05:38:07;4.00;;;3.10;;
53549;SDS011;73079;52.914;-0.982;2024-01-30T05:40:33;5.80;;;3.28;;
53549;SDS011;73079;52.914;-0.982;2024-01-30T05:42:58;3.55;;;2.80;;
53549;SDS011;73079;52.914;-0.982;2024-01-30T05:45:26;6.80;;;4.63;;
53549;SDS011;73079;52.914;-0.982;2024-01-30T05:47:53;9.02;;;5.20;;
53549;SDS011;73079;52.914;-0.982;2024-01-30T05:50:19;4.93;;;3.33;;
53549;SDS011;73079;52.914;-0.982;2024-01-30T05:52:45;5.00;;;3.03;;
53549;SDS011;73079;52.914;-0.982;2024-01-30T05:55:11;8.57;;;3.85;;
53549;SDS011;73079;52.914;-0.982;2024-01-30T05:57:37;5.68;;;3.45;;
53549;SDS011;73079;52.914;-0.982;2024-01-30T06:00:03;9.25;;;3.97;;
53549;SDS011;73079;52.914;-0.982;2024-01-30T06:02:30;7.97;;;3.90;;
53549;SDS011;73079;52.914;-0.982;2024-01-30T06:04:58;9.55;;;3.80;;
53549;SDS011;73079;52.914;-0.982;2024-01-30T06:07:24;5.47;;;3.67;;
53549;SDS011;73079;52.914;-0.982;2024-01-30T06:09:49;5.85;;;3.03;;
53549;SDS011;73079;52.914;-0.982;2024-01-30T06:12:15;7.95;;;3.83;;
53549;SDS011;73079;52.914;-0.982;2024-01-30T06:14:41;6.13;;;3.50;;
53549;SDS011;73079;52.914;-0.982;2024-01-30T06:17:07;6.00;;;3.20;;
53549;SDS011;73079;52.914;-0.982;2024-01-30T06:19:33;6.10;;;3.85;;
53549;SDS011;73079;52.914;-0.982;2024-01-30T06:22:00;6.47;;;2.90;;
53549;SDS011;73079;52.914;-0.982;2024-01-30T06:24:26;5.28;;;3.38;;
53549;SDS011;73079;52.914;-0.982;2024-01-30T06:26:53;7.05;;;4.07;;
53549;SDS011;73079;52.914;-0.982;2024-01-30T06:29:19;6.57;;;3.45;;
53549;SDS011;73079;52.914;-0.982;2024-01-30T06:31:46;7.88;;;3.85;;
53549;SDS011;73079;52.914;-0.982;2024-01-30T06:34:12;5.50;;;3.42;;
53549;SDS011;73079;52.914;-0.982;2024-01-30T06:36:37;8.82;;;3.15;;
53549;SDS011;73079;52.914;-0.982;2024-01-30T06:39:05;5.70;;;3.08;;
53549;SDS011;73079;52.914;-0.982;2024-01-30T06:41:32;8.80;;;3.78;;
53549;SDS011;73079;52.914;-0.982;2024-01-30T06:43:58;8.82;;;3.55;;
53549;SDS011;73079;52.914;-0.982;2024-01-30T06:46:24;6.82;;;3.10;;
53549;SDS011;73079;52.914;-0.982;2024-01-30T06:48:49;5.78;;;2.92;;
53549;SDS011;73079;52.914;-0.982;2024-01-30T06:51:15;6.70;;;3.05;;
53549;SDS011;73079;52.914;-0.982;2024-01-30T06:53:41;11.00;;;5.80;;
53549;SDS011;73079;52.914;-0.982;2024-01-30T06:56:08;5.53;;;3.13;;
53549;SDS011;73079;52.914;-0.982;2024-01-30T06:58:34;8.82;;;3.72;;
53549;SDS011;73079;52.914;-0.982;2024-01-30T07:00:59;6.53;;;3.45;;
53549;SDS011;73079;52.914;-0.982;2024-01-30T07:03:25;6.75;;;3.38;;
53549;SDS011;73079;52.914;-0.982;2024-01-30T07:05:51;11.13;;;3.83;;
53549;SDS011;73079;52.914;-0.982;2024-01-30T07:08:17;6.88;;;3.95;;
53549;SDS011;73079;52.914;-0.982;2024-01-30T07:10:42;6.78;;;4.25;;
53549;SDS011;73079;52.914;-0.982;2024-01-30T07:13:10;7.43;;;3.83;;
53549;SDS011;73079;52.914;-0.982;2024-01-30T07:15:35;10.02;;;4.68;;
53549;SDS011;73079;52.914;-0.982;2024-01-30T07:18:02;6.75;;;3.65;;
53549;SDS011;73079;52.914;-0.982;2024-01-30T07:20:28;8.82;;;4.43;;
53549;SDS011;73079;52.914;-0.982;2024-01-30T07:22:55;7.38;;;3.58;;
53549;SDS011;73079;52.914;-0.982;2024-01-30T07:25:21;7.72;;;4.28;;
53549;SDS011;73079;52.914;-0.982;2024-01-30T07:27:51;7.47;;;4.57;;
53549;SDS011;73079;52.914;-0.982;2024-01-30T07:30:19;7.93;;;3.65;;
53549;SDS011;73079;52.914;-0.982;2024-01-30T07:32:45;10.10;;;4.10;;
53549;SDS011;73079;52.914;-0.982;2024-01-30T07:35:12;7.60;;;4.03;;
53549;SDS011;73079;52.914;-0.982;2024-01-30T07:37:38;4.68;;;3.40;;
53549;SDS011;73079;52.914;-0.982;2024-01-30T07:40:04;5.30;;;3.55;;
53549;SDS011;73079;52.914;-0.982;2024-01-30T07:42:31;8.25;;;4.30;;
53549;SDS011;73079;52.914;-0.982;2024-01-30T07:44:57;8.02;;;4.55;;
53549;SDS011;73079;52.914;-0.982;2024-01-30T07:47:25;5.68;;;3.50;;
53549;SDS011;73079;52.914;-0.982;2024-01-30T07:49:50;7.07;;;4.35;;
53549;SDS011;73079;52.914;-0.982;2024-01-30T07:52:16;7.35;;;4.25;;
53549;SDS011;73079;52.914;-0.982;2024-01-30T07:54:42;5.57;;;4.40;;
53549;SDS011;73079;52.914;-0.982;2024-01-30T07:57:08;5.95;;;4.30;;
53549;SDS011;73079;52.914;-0.982;2024-01-30T07:59:34;6.32;;;4.45;;
53549;SDS011;73079;52.914;-0.982;2024-01-30T08:02:00;9.45;;;4.70;;
53549;SDS011;73079;52.914;-0.982;2024-01-30T08:04:27;7.22;;;4.72;;
53549;SDS011;73079;52.914;-0.982;2024-01-30T08:06:53;6.18;;;4.88;;
53549;SDS011;73079;52.914;-0.982;2024-01-30T08:09:18;10.07;;;6.15;;
53549;SDS011;73079;52.914;-0.982;2024-01-30T08:11:44;12.77;;;5.30;;
53549;SDS011;73079;52.914;-0.982;2024-01-30T08:14:10;9.18;;;6.20;;
53549;SDS011;73079;52.914;-0.982;2024-01-30T08:16:36;7.22;;;6.20;;
53549;SDS011;73079;52.914;-0.982;2024-01-30T08:19:02;9.43;;;7.45;;
53549;SDS011;73079;52.914;-0.982;2024-01-30T08:21:29;7.22;;;6.50;;
53549;SDS011;73079;52.914;-0.982;2024-01-30T08:23:55;5.85;;;5.07;;
53549;SDS011;73079;52.914;-0.982;2024-01-30T08:26:21;7.57;;;6.20;;
53549;SDS011;73079;52.914;-0.982;2024-01-30T08:28:47;8.40;;;6.60;;
53549;SDS011;73079;52.914;-0.982;2024-01-30T08:31:13;4.45;;;4.05;;
53549;SDS011;73079;52.914;-0.982;2024-01-30T08:33:39;7.82;;;5.35;;
53549;SDS011;73079;52.914;-0.982;2024-01-30T08:36:05;8.25;;;6.32;;
53549;SDS011;73079;52.914;-0.982;2024-01-30T08:38:32;7.30;;;5.78;;
53549;SDS011;73079;52.914;-0.982;2024-01-30T08:40:58;7.03;;;5.50;;
53549;SDS011;73079;52.914;-0.982;2024-01-30T08:43:24;5.88;;;5.20;;
53549;SDS011;73079;52.914;-0.982;2024-01-30T08:45:50;9.30;;;6.90;;
53549;SDS011;73079;52.914;-0.982;2024-01-30T08:48:16;7.53;;;6.28;;
53549;SDS011;73079;52.914;-0.982;2024-01-30T08:50:42;7.10;;;6.00;;
53549;SDS011;73079;52.914;-0.982;2024-01-30T08:53:08;7.78;;;6.57;;
53549;SDS011;73079;52.914;-0.982;2024-01-30T08:55:36;7.10;;;6.30;;
53549;SDS011;73079;52.914;-0.982;2024-01-30T08:58:01;9.25;;;6.78;;
53549;SDS011;73079;52.914;-0.982;2024-01-30T09:00:29;8.25;;;6.32;;
53549;SDS011;73079;52.914;-0.982;2024-01-30T09:02:55;10.32;;;7.00;;
53549;SDS011;73079;52.914;-0.982;2024-01-30T09:05:21;9.68;;;6.72;;
53549;SDS011;73079;52.914;-0.982;2024-01-30T09:07:47;7.07;;;6.30;;
53549;SDS011;73079;52.914;-0.982;2024-01-30T09:10:12;9.02;;;7.25;;
53549;SDS011;73079;52.914;-0.982;2024-01-30T09:12:40;9.52;;;5.75;;
53549;SDS011;73079;52.914;-0.982;2024-01-30T09:15:06;9.88;;;7.22;;
53549;SDS011;73079;52.914;-0.982;2024-01-30T09:17:32;7.45;;;5.82;;
53549;SDS011;73079;52.914;-0.982;2024-01-30T09:19:58;9.13;;;6.22;;
53549;SDS011;73079;52.914;-0.982;2024-01-30T09:22:24;11.68;;;6.30;;
53549;SDS011;73079;52.914;-0.982;2024-01-30T09:24:50;7.97;;;5.35;;
53549;SDS011;73079;52.914;-0.982;2024-01-30T09:27:16;8.73;;;6.07;;
53549;SDS011;73079;52.914;-0.982;2024-01-30T09:29:43;7.15;;;5.53;;
53549;SDS011;73079;52.914;-0.982;2024-01-30T09:32:09;8.68;;;6.45;;
53549;SDS011;73079;52.914;-0.982;2024-01-30T09:34:35;9.57;;;6.38;;
53549;SDS011;73079;52.914;-0.982;2024-01-30T09:37:00;6.70;;;5.45;;
53549;SDS011;73079;52.914;-0.982;2024-01-30T09:39:26;9.07;;;5.65;;
53549;SDS011;73079;52.914;-0.982;2024-01-30T09:41:54;8.27;;;6.10;;
53549;SDS011;73079;52.914;-0.982;2024-01-30T09:44:28;6.13;;;5.50;;
53549;SDS011;73079;52.914;-0.982;2024-01-30T09:46:57;11.57;;;6.30;;
53549;SDS011;73079;52.914;-0.982;2024-01-30T09:49:29;6.97;;;5.72;;
53549;SDS011;73079;52.914;-0.982;2024-01-30T09:51:57;8.23;;;5.82;;
53549;SDS011;73079;52.914;-0.982;2024-01-30T09:54:23;7.82;;;5.53;;
53549;SDS011;73079;52.914;-0.982;2024-01-30T09:56:49;6.72;;;5.28;;
53549;SDS011;73079;52.914;-0.982;2024-01-30T09:59:14;7.88;;;5.13;;
53549;SDS011;73079;52.914;-0.982;2024-01-30T10:01:40;5.53;;;4.25;;
53549;SDS011;73079;52.914;-0.982;2024-01-30T10:04:09;8.57;;;4.93;;
53549;SDS011;73079;52.914;-0.982;2024-01-30T10:06:35;6.97;;;4.63;;
53549;SDS011;73079;52.914;-0.982;2024-01-30T10:09:03;7.95;;;5.03;;
53549;SDS011;73079;52.914;-0.982;2024-01-30T10:11:30;6.10;;;4.65;;
53549;SDS011;73079;52.914;-0.982;2024-01-30T10:13:55;6.82;;;4.35;;
53549;SDS011;73079;52.914;-0.982;2024-01-30T10:16:21;5.78;;;3.97;;
53549;SDS011;73079;52.914;-0.982;2024-01-30T10:18:47;9.48;;;4.45;;
53549;SDS011;73079;52.914;-0.982;2024-01-30T10:21:14;6.47;;;4.10;;
53549;SDS011;73079;52.914;-0.982;2024-01-30T10:23:40;6.93;;;4.30;;
53549;SDS011;73079;52.914;-0.982;2024-01-30T10:26:07;7.25;;;5.03;;
53549;SDS011;73079;52.914;-0.982;2024-01-30T10:28:33;9.68;;;5.32;;
53549;SDS011;73079;52.914;-0.982;2024-01-30T10:30:59;8.45;;;5.03;;
53549;SDS011;73079;52.914;-0.982;2024-01-30T10:33:25;6.47;;;4.85;;
53549;SDS011;73079;52.914;-0.982;2024-01-30T10:35:51;7.35;;;5.25;;
53549;SDS011;73079;52.914;-0.982;2024-01-30T10:38:19;7.80;;;5.13;;
53549;SDS011;73079;52.914;-0.982;2024-01-30T10:40:46;7.85;;;5.05;;
53549;SDS011;73079;52.914;-0.982;2024-01-30T10:43:16;7.18;;;4.68;;
53549;SDS011;73079;52.914;-0.982;2024-01-30T10:45:47;6.53;;;5.05;;
53549;SDS011;73079;52.914;-0.982;2024-01-30T10:48:15;8.73;;;4.35;;
53549;SDS011;73079;52.914;-0.982;2024-01-30T10:50:44;4.22;;;2.85;;
53549;SDS011;73079;52.914;-0.982;2024-01-30T10:53:11;8.63;;;4.30;;
53549;SDS011;73079;52.914;-0.982;2024-01-30T10:55:39;4.80;;;3.00;;
53549;SDS011;73079;52.914;-0.982;2024-01-30T10:58:06;4.72;;;3.30;;
53549;SDS011;73079;52.914;-0.982;2024-01-30T11:00:33;4.88;;;2.33;;
53549;SDS011;73079;52.914;-0.982;2024-01-30T11:02:59;3.47;;;2.05;;
53549;SDS011;73079;52.914;-0.982;2024-01-30T11:05:26;6.15;;;2.22;;
53549;SDS011;73079;52.914;-0.982;2024-01-30T11:07:53;2.78;;;1.80;;
53549;SDS011;73079;52.914;-0.982;2024-01-30T11:10:18;2.45;;;1.83;;
53549;SDS011;73079;52.914;-0.982;2024-01-30T11:12:46;2.28;;;1.77;;
53549;SDS011;73079;52.914;-0.982;2024-01-30T11:15:12;2.53;;;1.63;;
53549;SDS011;73079;52.914;-0.982;2024-01-30T11:17:45;3.30;;;2.25;;
53549;SDS011;73079;52.914;-0.982;2024-01-30T11:20:18;7.53;;;3.20;;
53549;SDS011;73079;52.914;-0.982;2024-01-30T11:22:46;4.93;;;2.08;;
53549;SDS011;73079;52.914;-0.982;2024-01-30T11:25:13;2.55;;;1.90;;
53549;SDS011;73079;52.914;-0.982;2024-01-30T11:27:39;3.65;;;2.60;;
53549;SDS011;73079;52.914;-0.982;2024-01-30T11:30:08;2.80;;;2.00;;
53549;SDS011;73079;52.914;-0.982;2024-01-30T11:32:34;10.45;;;3.42;;
53549;SDS011;73079;52.914;-0.982;2024-01-30T11:35:02;4.43;;;2.83;;
53549;SDS011;73079;52.914;-0.982;2024-01-30T11:37:29;9.15;;;5.72;;
53549;SDS011;73079;52.914;-0.982;2024-01-30T11:39:56;6.80;;;3.35;;
53549;SDS011;73079;52.914;-0.982;2024-01-30T11:42:24;7.20;;;3.60;;
53549;SDS011;73079;52.914;-0.982;2024-01-30T11:44:53;5.95;;;3.13;;
53549;SDS011;73079;52.914;-0.982;2024-01-30T11:47:20;5.38;;;3.42;;
53549;SDS011;73079;52.914;-0.982;2024-01-30T11:49:48;4.15;;;2.75;;
53549;SDS011;73079;52.914;-0.982;2024-01-30T11:52:14;4.68;;;3.20;;
53549;SDS011;73079;52.914;-0.982;2024-01-30T11:54:39;4.97;;;4.00;;
53549;SDS011;73079;52.914;-0.982;2024-01-30T11:57:05;4.35;;;3.13;;
53549;SDS011;73079;52.914;-0.982;2024-01-30T11:59:31;5.15;;;3.22;;
53549;SDS011;73079;52.914;-0.982;2024-01-30T12:01:57;4.15;;;3.22;;
53549;SDS011;73079;52.914;-0.982;2024-01-30T12:04:24;7.22;;;4.40;;
53549;SDS011;73079;52.914;-0.982;2024-01-30T12:06:54;4.70;;;3.10;;
53549;SDS011;73079;52.914;-0.982;2024-01-30T12:09:20;4.40;;;2.80;;
53549;SDS011;73079;52.914;-0.982;2024-01-30T12:11:47;5.18;;;3.35;;
53549;SDS011;73079;52.914;-0.982;2024-01-30T12:14:15;5.85;;;4.88;;
53549;SDS011;73079;52.914;-0.982;2024-01-30T12:16:42;7.07;;;3.40;;
53549;SDS011;73079;52.914;-0.982;2024-01-30T12:19:08;4.53;;;3.33;;
53549;SDS011;73079;52.914;-0.982;2024-01-30T12:21:36;5.30;;;4.80;;
53549;SDS011;73079;52.914;-0.982;2024-01-30T12:24:04;5.70;;;3.45;;
53549;SDS011;73079;52.914;-0.982;2024-01-30T12:26:32;7.03;;;5.18;;
53549;SDS011;73079;52.914;-0.982;2024-01-30T12:28:58;6.28;;;3.85;;
53549;SDS011;73079;52.914;-0.982;2024-01-30T12:31:27;6.07;;;3.65;;
53549;SDS011;73079;52.914;-0.982;2024-01-30T12:33:53;3.15;;;2.50;;
53549;SDS011;73079;52.914;-0.982;2024-01-30T12:36:20;1.38;;;1.27;;
53549;SDS011;73079;52.914;-0.982;2024-01-30T12:38:48;1.60;;;1.50;;
53549;SDS011;73079;52.914;-0.982;2024-01-30T12:41:14;2.00;;;1.50;;
53549;SDS011;73079;52.914;-0.982;2024-01-30T12:43:41;1.52;;;1.27;;
53549;SDS011;73079;52.914;-0.982;2024-01-30T12:46:07;1.20;;;1.10;;
53549;SDS011;73079;52.914;-0.982;2024-01-30T12:48:33;1.30;;;1.10;;
53549;SDS011;73079;52.914;-0.982;2024-01-30T12:50:59;1.55;;;1.20;;
53549;SDS011;73079;52.914;-0.982;2024-01-30T12:53:25;1.25;;;1.08;;
53549;SDS011;73079;52.914;-0.982;2024-01-30T12:55:52;2.33;;;1.30;;
53549;SDS011;73079;52.914;-0.982;2024-01-30T12:58:19;1.50;;;1.10;;
53549;SDS011;73079;52.914;-0.982;2024-01-30T13:00:45;1.38;;;1.27;;
53549;SDS011;73079;52.914;-0.982;2024-01-30T13:03:12;1.33;;;1.20;;
53549;SDS011;73079;52.914;-0.982;2024-01-30T13:05:38;1.58;;;1.35;;
53549;SDS011;73079;52.914;-0.982;2024-01-30T13:08:04;1.65;;;1.20;;
53549;SDS011;73079;52.914;-0.982;2024-01-30T13:10:30;1.92;;;1.40;;
53549;SDS011;73079;52.914;-0.982;2024-01-30T13:12:57;1.83;;;1.30;;
53549;SDS011;73079;52.914;-0.982;2024-01-30T13:15:23;1.90;;;1.40;;
53549;SDS011;73079;52.914;-0.982;2024-01-30T13:17:49;1.60;;;1.33;;
53549;SDS011;73079;52.914;-0.982;2024-01-30T13:20:15;4.15;;;1.63;;
53549;SDS011;73079;52.914;-0.982;2024-01-30T13:22:44;1.15;;;1.10;;
53549;SDS011;73079;52.914;-0.982;2024-01-30T13:25:10;1.48;;;1.38;;
53549;SDS011;73079;52.914;-0.982;2024-01-30T13:27:36;1.48;;;1.30;;
53549;SDS011;73079;52.914;-0.982;2024-01-30T13:30:04;3.00;;;1.50;;
53549;SDS011;73079;52.914;-0.982;2024-01-30T13:32:33;2.92;;;1.55;;
53549;SDS011;73079;52.914;-0.982;2024-01-30T13:34:59;2.00;;;1.60;;
53549;SDS011;73079;52.914;-0.982;2024-01-30T13:37:24;1.45;;;1.35;;
53549;SDS011;73079;52.914;-0.982;2024-01-30T13:39:50;1.35;;;1.05;;
53549;SDS011;73079;52.914;-0.982;2024-01-30T13:42:16;0.93;;;0.88;;
53549;SDS011;73079;52.914;-0.982;2024-01-30T13:44:42;4.18;;;2.67;;
53549;SDS011;73079;52.914;-0.982;2024-01-30T13:47:10;4.07;;;3.00;;
53549;SDS011;73079;52.914;-0.982;2024-01-30T13:49:36;4.95;;;4.03;;
53549;SDS011;73079;52.914;-0.982;2024-01-30T13:52:02;6.38;;;4.90;;
53549;SDS011;73079;52.914;-0.982;2024-01-30T13:54:28;4.53;;;3.67;;
53549;SDS011;73079;52.914;-0.982;2024-01-30T13:56:55;5.50;;;4.68;;
53549;SDS011;73079;52.914;-0.982;2024-01-30T13:59:21;5.20;;;3.53;;
53549;SDS011;73079;52.914;-0.982;2024-01-30T14:01:49;5.75;;;4.47;;
53549;SDS011;73079;52.914;-0.982;2024-01-30T14:04:17;4.57;;;3.35;;
53549;SDS011;73079;52.914;-0.982;2024-01-30T14:06:43;11.77;;;10.55;;
53549;SDS011;73079;52.914;-0.982;2024-01-30T14:09:09;12.70;;;11.52;;
53549;SDS011;73079;52.914;-0.982;2024-01-30T14:11:36;3.90;;;3.50;;
53549;SDS011;73079;52.914;-0.982;2024-01-30T14:14:02;5.05;;;4.15;;
53549;SDS011;73079;52.914;-0.982;2024-01-30T14:16:27;5.53;;;4.60;;
53549;SDS011;73079;52.914;-0.982;2024-01-30T14:18:54;4.55;;;3.25;;
53549;SDS011;73079;52.914;-0.982;2024-01-30T14:21:21;4.72;;;3.53;;
53549;SDS011;73079;52.914;-0.982;2024-01-30T14:23:47;5.60;;;3.65;;